Portada
METAR-TAF:

METAR-TAF

Aeroports :

Kermanxah, Iran

latitud: 34-16N, longitud: 047-07E, altitud: 1320 m

Observació

L'informe es va fer fa 26 minuts, a les 08:00 UTC
Vent 4 kt del Oest
Temperatura 22°C
Humitat 35%
Pressió 1023 hPa
Visibilitat 10 km o més
Escasses núvols a una alçada de 4500 ft, Cumulus congestus.

METAR: OICC 200800Z 26004KT 9999 FEW045TCU 22/06 Q1023 A3022 NOSIG

Hora: 11:56 (08:26 UTC)


TAF: manca

Observacions i pronòstics meteorològics de més de 4000 aeroports (METAR i TAF).

Les estacions disponibles són els punts grocs i vermells al mapa.

Posi el ratolí al punt desitjat per veure el nom de l'estació.

Feu clic per veure les observacions i els pronòstics meteorològics.

Per canviar el mapa: feu clic els botons verds amb una creu de color negre per apropar; al botó verd amb un guió per allunyar la imatge; o en les fletxes verdes per a mapes adjacents.


METAR-TAF: